createdAt,value
2023-05-19T00:02:09.352Z,11.10
2023-05-19T00:04:33.904Z,11.10
2023-05-19T00:07:00.441Z,11.00
2023-05-19T00:09:26.079Z,11.00
2023-05-19T00:11:50.215Z,11.00
2023-05-19T00:14:14.175Z,11.00
2023-05-19T00:16:38.957Z,10.90
2023-05-19T00:19:05.286Z,10.90
2023-05-19T00:21:29.391Z,10.90
2023-05-19T00:23:52.837Z,10.80
2023-05-19T00:26:17.586Z,10.80
2023-05-19T00:28:51.311Z,10.80
2023-05-19T00:31:14.799Z,10.70
2023-05-19T00:33:38.122Z,10.60
2023-05-19T00:36:03.063Z,10.60
2023-05-19T00:38:26.337Z,10.50
2023-05-19T00:40:49.859Z,10.60
2023-05-19T00:43:14.629Z,10.50
2023-05-19T00:45:38.106Z,10.50
2023-05-19T00:48:02.396Z,10.40
2023-05-19T00:50:27.381Z,10.40
2023-05-19T00:52:50.807Z,10.40
2023-05-19T00:55:15.339Z,10.30
2023-05-19T00:57:39.274Z,10.20
2023-05-19T01:00:05.738Z,10.20
2023-05-19T01:02:29.805Z,10.20
2023-05-19T01:04:53.488Z,10.20
2023-05-19T01:07:18.719Z,10.00
2023-05-19T01:09:42.116Z,10.00
2023-05-19T01:12:06.228Z,10.10
2023-05-19T01:14:30.688Z,10.00
2023-05-19T01:17:05.526Z,10.00
2023-05-19T01:19:52.032Z,9.90
2023-05-19T01:22:43.799Z,9.90
2023-05-19T01:25:35.946Z,9.70
2023-05-19T01:28:36.665Z,9.80
2023-05-19T01:31:06.143Z,9.70
2023-05-19T01:33:32.077Z,9.70
2023-05-19T01:35:57.492Z,9.70
2023-05-19T01:38:22.270Z,9.60
2023-05-19T01:40:48.720Z,9.60
2023-05-19T01:43:19.794Z,9.60
2023-05-19T01:45:43.817Z,9.50
2023-05-19T01:48:10.847Z,9.50
2023-05-19T01:50:35.938Z,9.40
2023-05-19T01:53:00.087Z,9.30
2023-05-19T01:55:24.526Z,9.30
2023-05-19T01:58:02.374Z,9.40
2023-05-19T02:00:39.201Z,9.30
2023-05-19T02:03:18.708Z,9.20
2023-05-19T02:05:55.659Z,9.20
2023-05-19T02:08:28.496Z,9.20
2023-05-19T02:10:58.553Z,9.10
2023-05-19T02:13:25.533Z,9.20
2023-05-19T02:15:51.478Z,9.10
2023-05-19T02:18:20.360Z,9.10
2023-05-19T02:20:48.555Z,9.00
2023-05-19T02:23:11.858Z,9.00
2023-05-19T02:25:35.453Z,9.00
2023-05-19T02:27:59.819Z,8.90
2023-05-19T02:30:26.188Z,8.90
2023-05-19T02:32:49.705Z,8.90
2023-05-19T02:35:14.451Z,8.90
2023-05-19T02:37:38.232Z,8.80
2023-05-19T02:40:01.518Z,8.80
2023-05-19T02:42:25.861Z,8.80
2023-05-19T02:44:50.492Z,8.80
2023-05-19T02:47:14.395Z,8.70
2023-05-19T02:49:37.850Z,8.80
2023-05-19T02:52:02.809Z,8.80
2023-05-19T02:54:26.325Z,8.80
2023-05-19T02:56:49.682Z,8.80
2023-05-19T02:59:12.932Z,8.80
2023-05-19T03:01:37.799Z,8.90
2023-05-19T03:04:01.432Z,9.00
2023-05-19T03:06:24.895Z,9.00
2023-05-19T03:08:49.851Z,9.00
2023-05-19T03:11:13.285Z,9.00
2023-05-19T03:13:36.760Z,9.00
2023-05-19T03:16:00.178Z,9.00
2023-05-19T03:18:24.692Z,8.80
2023-05-19T03:20:48.026Z,8.90
2023-05-19T03:23:11.418Z,8.90
2023-05-19T03:25:36.399Z,8.90
2023-05-19T03:27:59.681Z,8.80
2023-05-19T03:30:23.174Z,8.80
2023-05-19T03:32:57.397Z,8.80
2023-05-19T03:35:21.163Z,8.80
2023-05-19T03:37:44.541Z,8.70
2023-05-19T03:40:10.557Z,8.70
2023-05-19T03:42:37.457Z,8.60
2023-05-19T03:45:01.315Z,8.60
2023-05-19T03:47:24.724Z,8.70
2023-05-19T03:49:59.264Z,8.60
2023-05-19T03:52:57.881Z,8.50
2023-05-19T03:55:26.625Z,8.50
2023-05-19T03:57:52.519Z,8.50
2023-05-19T04:00:17.305Z,8.50
2023-05-19T04:02:40.832Z,8.40
2023-05-19T04:05:05.072Z,8.50
2023-05-19T04:07:28.365Z,8.50
2023-05-19T04:09:53.271Z,8.50
2023-05-19T04:12:16.977Z,8.50
2023-05-19T04:14:41.698Z,8.50
2023-05-19T04:17:06.936Z,8.50
2023-05-19T04:19:30.421Z,8.60
2023-05-19T04:21:53.745Z,8.50
2023-05-19T04:24:17.145Z,8.50
2023-05-19T04:26:42.458Z,8.60
2023-05-19T04:29:06.050Z,8.60
2023-05-19T04:31:30.833Z,8.80
2023-05-19T04:33:55.254Z,8.70
2023-05-19T04:36:21.599Z,8.90
2023-05-19T04:38:47.365Z,8.90
2023-05-19T04:41:12.298Z,9.00
2023-05-19T04:43:41.587Z,8.90
2023-05-19T04:46:06.280Z,8.90
2023-05-19T04:48:31.129Z,8.90
2023-05-19T04:50:54.473Z,9.00
2023-05-19T04:53:18.265Z,9.00
2023-05-19T04:55:41.699Z,9.00
2023-05-19T04:58:05.419Z,9.00
2023-05-19T05:00:29.790Z,9.00
2023-05-19T05:02:59.770Z,9.00
2023-05-19T05:05:27.175Z,9.10
2023-05-19T05:07:50.576Z,9.20
2023-05-19T05:10:14.289Z,9.10
2023-05-19T05:12:38.428Z,9.30
2023-05-19T05:15:02.567Z,9.40
2023-05-19T05:17:27.221Z,9.40
2023-05-19T05:19:51.767Z,9.40
2023-05-19T05:22:18.354Z,9.50
2023-05-19T05:24:42.585Z,9.60
2023-05-19T05:27:08.194Z,9.70
2023-05-19T05:29:31.631Z,9.80
2023-05-19T05:31:54.938Z,9.90
2023-05-19T05:34:19.488Z,10.00
2023-05-19T05:36:42.893Z,10.10
2023-05-19T05:39:08.169Z,10.20
2023-05-19T05:41:35.440Z,10.40
2023-05-19T05:44:05.436Z,10.50
2023-05-19T05:46:29.474Z,10.60
2023-05-19T05:48:53.644Z,10.80
2023-05-19T05:51:17.773Z,11.00
2023-05-19T05:53:44.302Z,11.20
2023-05-19T05:56:13.059Z,11.50
2023-05-19T05:58:42.196Z,11.50
2023-05-19T06:01:05.960Z,11.40
2023-05-19T06:03:29.594Z,11.60
2023-05-19T06:05:57.582Z,11.60
2023-05-19T06:08:21.042Z,12.00
2023-05-19T06:10:46.562Z,12.00
2023-05-19T06:13:12.294Z,12.10
2023-05-19T06:15:37.989Z,11.90
2023-05-19T06:18:06.931Z,12.30
2023-05-19T06:20:30.502Z,12.60
2023-05-19T06:22:55.012Z,12.60
2023-05-19T06:25:20.650Z,12.80
2023-05-19T06:27:44.253Z,13.00
2023-05-19T06:30:10.956Z,13.10
2023-05-19T06:32:49.902Z,13.20
2023-05-19T06:35:13.277Z,13.40
2023-05-19T06:37:36.633Z,13.40
2023-05-19T06:40:00.753Z,13.70
2023-05-19T06:42:25.250Z,13.70
2023-05-19T06:44:55.124Z,14.20
2023-05-19T06:47:20.157Z,14.40
2023-05-19T06:49:43.707Z,14.50
2023-05-19T06:52:07.586Z,14.10
2023-05-19T06:54:30.956Z,14.10
2023-05-19T06:56:54.471Z,14.60
2023-05-19T06:59:17.829Z,14.70
2023-05-19T07:01:41.618Z,14.30
2023-05-19T07:04:06.737Z,14.50
2023-05-19T07:06:30.119Z,14.90
2023-05-19T07:08:53.988Z,14.70
2023-05-19T07:11:18.335Z,14.50
2023-05-19T07:13:41.884Z,14.70
2023-05-19T07:16:06.637Z,14.80
2023-05-19T07:18:31.867Z,15.40
2023-05-19T07:20:57.576Z,15.20
2023-05-19T07:23:21.058Z,15.20
2023-05-19T07:25:44.618Z,15.00
2023-05-19T07:28:07.880Z,15.40
2023-05-19T07:30:31.689Z,15.60
2023-05-19T07:32:55.140Z,15.70
2023-05-19T07:35:18.730Z,16.00
2023-05-19T07:37:43.400Z,16.30
2023-05-19T07:40:09.273Z,16.10
2023-05-19T07:42:32.530Z,16.30
2023-05-19T07:44:55.881Z,16.00
2023-05-19T07:47:19.189Z,16.10
2023-05-19T07:49:42.505Z,16.50
2023-05-19T07:52:06.236Z,16.30
2023-05-19T07:54:31.031Z,16.20
2023-05-19T07:56:54.289Z,17.00
2023-05-19T07:59:17.824Z,17.40
2023-05-19T08:01:41.197Z,17.10
2023-05-19T08:04:04.748Z,17.20
2023-05-19T08:06:28.333Z,17.50
2023-05-19T08:08:52.039Z,17.20
2023-05-19T08:11:16.798Z,17.30
2023-05-19T08:13:40.319Z,17.50
2023-05-19T08:16:03.907Z,17.50
2023-05-19T08:18:27.617Z,17.30
2023-05-19T08:20:51.189Z,17.40
2023-05-19T08:23:14.518Z,17.50
2023-05-19T08:25:37.795Z,17.80
2023-05-19T08:28:02.399Z,17.90
2023-05-19T08:30:25.890Z,17.70
2023-05-19T08:32:49.460Z,17.30
2023-05-19T08:35:12.777Z,18.10
2023-05-19T08:37:37.176Z,18.50
2023-05-19T08:40:00.763Z,17.90
2023-05-19T08:42:24.425Z,17.70
2023-05-19T08:44:49.118Z,17.90
2023-05-19T08:47:13.945Z,18.00
2023-05-19T08:49:44.905Z,17.80
2023-05-19T08:52:18.431Z,18.30
2023-05-19T08:54:48.332Z,18.00
2023-05-19T08:57:12.116Z,18.50
2023-05-19T08:59:36.041Z,18.60
2023-05-19T09:02:01.314Z,18.40
2023-05-19T09:04:29.908Z,18.70
2023-05-19T09:06:53.762Z,19.00
2023-05-19T09:09:17.356Z,18.50
2023-05-19T09:11:41.673Z,18.70
2023-05-19T09:14:05.030Z,18.70
2023-05-19T09:16:30.247Z,18.90
2023-05-19T09:19:00.998Z,18.90
2023-05-19T09:21:31.433Z,18.80
2023-05-19T09:23:55.967Z,18.80
2023-05-19T09:26:20.703Z,18.60
2023-05-19T09:28:44.429Z,19.10
2023-05-19T09:31:09.523Z,19.50
2023-05-19T09:33:36.168Z,19.10
2023-05-19T09:36:01.267Z,19.20
2023-05-19T09:38:26.342Z,19.50
2023-05-19T09:40:51.564Z,19.20
2023-05-19T09:43:14.865Z,19.00
2023-05-19T09:45:38.129Z,19.50
2023-05-19T09:48:05.694Z,19.10
2023-05-19T09:50:30.900Z,19.20
2023-05-19T09:52:56.021Z,19.50
2023-05-19T09:55:23.111Z,19.10
2023-05-19T09:57:46.693Z,19.50
2023-05-19T10:00:15.492Z,19.50
2023-05-19T10:02:42.431Z,19.70
2023-05-19T10:05:07.541Z,19.50
2023-05-19T10:07:31.369Z,19.60
2023-05-19T10:09:58.600Z,20.10
2023-05-19T10:12:22.414Z,20.20
2023-05-19T10:14:45.880Z,19.90
2023-05-19T10:17:11.072Z,19.70
2023-05-19T10:19:35.084Z,19.60
2023-05-19T10:21:58.570Z,19.70
2023-05-19T10:24:23.000Z,19.80
2023-05-19T10:26:51.702Z,19.80
2023-05-19T10:29:21.159Z,19.90
2023-05-19T10:31:46.412Z,19.20
2023-05-19T10:34:37.458Z,20.10
2023-05-19T10:37:13.774Z,19.70
2023-05-19T10:39:38.297Z,20.00
2023-05-19T10:42:13.545Z,19.90
2023-05-19T10:44:51.463Z,20.50
2023-05-19T10:47:14.959Z,20.10
2023-05-19T10:49:38.642Z,20.30
2023-05-19T10:52:01.981Z,20.40
2023-05-19T10:54:43.304Z,20.50
2023-05-19T10:57:09.946Z,20.30
2023-05-19T10:59:35.088Z,20.50
2023-05-19T11:01:58.414Z,20.60
2023-05-19T11:04:41.080Z,20.20
2023-05-19T11:07:04.651Z,20.70
2023-05-19T11:09:39.722Z,20.20
2023-05-19T11:12:05.102Z,20.30
2023-05-19T11:14:31.675Z,20.50
2023-05-19T11:16:59.144Z,20.70
2023-05-19T11:19:28.801Z,21.00
2023-05-19T11:21:55.090Z,21.10
2023-05-19T11:24:38.379Z,20.50
2023-05-19T11:27:19.102Z,20.50
2023-05-19T11:29:44.140Z,19.90
2023-05-19T11:32:08.711Z,20.50
2023-05-19T11:34:32.924Z,20.50
2023-05-19T11:36:57.243Z,20.50
2023-05-19T11:39:21.028Z,20.80
2023-05-19T11:41:45.069Z,21.00
2023-05-19T11:44:12.561Z,21.10
2023-05-19T11:46:37.932Z,20.80
2023-05-19T11:49:02.239Z,20.60
2023-05-19T11:51:26.121Z,20.70
2023-05-19T11:53:51.605Z,20.60
2023-05-19T11:56:15.191Z,20.40
2023-05-19T11:58:38.999Z,21.10
2023-05-19T12:01:06.289Z,21.10
2023-05-19T12:03:33.191Z,20.50
2023-05-19T12:05:57.374Z,20.70
2023-05-19T12:08:21.625Z,20.20
2023-05-19T12:10:45.117Z,20.80
2023-05-19T12:13:09.761Z,20.50
2023-05-19T12:15:34.469Z,20.70
2023-05-19T12:18:00.561Z,21.00
2023-05-19T12:20:25.675Z,21.00
2023-05-19T12:22:49.591Z,21.30
2023-05-19T12:25:13.020Z,20.70
2023-05-19T12:27:38.306Z,20.50
2023-05-19T12:30:01.694Z,20.80
2023-05-19T12:32:25.681Z,20.70
2023-05-19T12:34:49.204Z,21.00
2023-05-19T12:37:14.268Z,20.70
2023-05-19T12:39:38.273Z,20.90
2023-05-19T12:42:08.568Z,20.70
2023-05-19T12:44:32.320Z,20.70
2023-05-19T12:46:58.324Z,20.60
2023-05-19T12:49:21.649Z,20.80
2023-05-19T12:51:53.586Z,21.40
2023-05-19T12:54:20.881Z,21.10
2023-05-19T12:56:51.945Z,21.30
2023-05-19T12:59:34.789Z,21.80
2023-05-19T13:02:02.490Z,21.60
2023-05-19T13:04:26.223Z,21.50
2023-05-19T13:06:49.679Z,21.30
2023-05-19T13:09:13.881Z,21.00
2023-05-19T13:11:40.607Z,21.40
2023-05-19T13:14:03.912Z,21.20
2023-05-19T13:16:27.258Z,21.20
2023-05-19T13:18:51.546Z,21.10
2023-05-19T13:21:15.026Z,21.50
2023-05-19T13:23:38.327Z,21.30
2023-05-19T13:26:01.756Z,21.10
2023-05-19T13:28:26.461Z,21.20
2023-05-19T13:30:51.316Z,21.50
2023-05-19T13:33:15.173Z,21.10
2023-05-19T13:35:38.940Z,21.10
2023-05-19T13:38:04.285Z,21.30
2023-05-19T13:40:28.184Z,21.20
2023-05-19T13:42:51.602Z,21.10
2023-05-19T13:45:16.261Z,20.70
2023-05-19T13:47:39.787Z,21.10
2023-05-19T13:50:05.465Z,21.50
2023-05-19T13:52:30.471Z,21.00
2023-05-19T13:54:54.540Z,21.00
2023-05-19T13:57:18.500Z,20.90
2023-05-19T13:59:53.431Z,21.10
2023-05-19T14:02:25.401Z,21.40
2023-05-19T14:04:48.806Z,21.40
2023-05-19T14:07:12.190Z,20.90
2023-05-19T14:09:35.463Z,20.50
2023-05-19T14:11:58.876Z,20.80
2023-05-19T14:14:22.768Z,20.70
2023-05-19T14:16:46.470Z,20.80
2023-05-19T14:19:12.081Z,20.80
2023-05-19T14:21:36.466Z,21.00
2023-05-19T14:23:59.917Z,20.90
2023-05-19T14:26:23.191Z,21.20
2023-05-19T14:28:46.598Z,21.20
2023-05-19T14:31:13.108Z,21.30
2023-05-19T14:33:36.460Z,21.20
2023-05-19T14:36:01.452Z,21.10
2023-05-19T14:38:25.168Z,21.30
2023-05-19T14:40:49.381Z,21.10
2023-05-19T14:43:12.879Z,21.50
2023-05-19T14:45:36.322Z,21.40
2023-05-19T14:47:59.664Z,21.50
2023-05-19T14:50:23.392Z,21.30
2023-05-19T14:52:48.033Z,21.20
2023-05-19T14:55:11.656Z,21.00
2023-05-19T14:57:34.979Z,21.10
2023-05-19T14:59:58.372Z,21.50
2023-05-19T15:02:21.677Z,21.30
2023-05-19T15:04:45.090Z,21.40
2023-05-19T15:07:10.328Z,21.30
2023-05-19T15:09:35.776Z,21.70
2023-05-19T15:12:01.087Z,21.30
2023-05-19T15:14:24.549Z,21.00
2023-05-19T15:16:47.971Z,21.20
2023-05-19T15:19:11.272Z,21.30
2023-05-19T15:21:34.549Z,21.20
2023-05-19T15:23:57.958Z,21.50
2023-05-19T15:26:23.046Z,21.70
2023-05-19T15:28:46.350Z,21.60
2023-05-19T15:31:09.798Z,21.60
2023-05-19T15:33:33.225Z,21.30
2023-05-19T15:35:56.573Z,21.00
2023-05-19T15:38:20.501Z,20.80
2023-05-19T15:40:43.875Z,20.40
2023-05-19T15:43:08.493Z,20.80
2023-05-19T15:45:31.962Z,21.20
2023-05-19T15:47:55.987Z,21.70
2023-05-19T15:50:19.519Z,21.50
2023-05-19T15:52:42.811Z,21.40
2023-05-19T15:55:07.419Z,21.00
2023-05-19T15:57:30.827Z,21.50
2023-05-19T15:59:55.812Z,21.20
2023-05-19T16:02:19.493Z,21.00
2023-05-19T16:04:42.958Z,21.10
2023-05-19T16:07:06.792Z,21.90
2023-05-19T16:09:30.133Z,21.50
2023-05-19T16:11:53.426Z,21.30
2023-05-19T16:14:16.744Z,21.00
2023-05-19T16:16:41.432Z,20.90
2023-05-19T16:19:04.872Z,20.80
2023-05-19T16:21:28.192Z,20.80
2023-05-19T16:23:51.550Z,20.60
2023-05-19T16:26:14.880Z,20.60
2023-05-19T16:28:38.209Z,20.50
2023-05-19T16:31:01.877Z,20.50
2023-05-19T16:33:26.964Z,20.50
2023-05-19T16:35:50.305Z,20.50
2023-05-19T16:38:13.638Z,20.30
2023-05-19T16:40:37.278Z,20.20
2023-05-19T16:43:01.828Z,20.20
2023-05-19T16:45:26.246Z,20.10
2023-05-19T16:47:49.874Z,20.00
2023-05-19T16:50:14.665Z,20.00
2023-05-19T16:52:38.126Z,20.00
2023-05-19T16:55:01.522Z,20.00
2023-05-19T16:57:25.066Z,20.00
2023-05-19T16:59:49.587Z,19.90
2023-05-19T17:02:13.033Z,19.90
2023-05-19T17:04:36.428Z,19.80
2023-05-19T17:07:01.363Z,19.70
2023-05-19T17:09:25.926Z,19.70
2023-05-19T17:11:49.254Z,19.60
2023-05-19T17:14:13.164Z,19.60
2023-05-19T17:16:36.819Z,19.60
2023-05-19T17:19:00.275Z,19.50
2023-05-19T17:21:23.684Z,19.50
2023-05-19T17:23:49.343Z,19.50
2023-05-19T17:26:12.648Z,19.50
2023-05-19T17:28:36.250Z,19.50
2023-05-19T17:30:59.606Z,19.50
2023-05-19T17:33:23.197Z,19.30
2023-05-19T17:35:46.534Z,19.30
2023-05-19T17:38:09.837Z,19.20
2023-05-19T17:40:35.618Z,19.20
2023-05-19T17:42:59.178Z,19.20
2023-05-19T17:45:22.597Z,19.10
2023-05-19T17:47:46.027Z,19.10
2023-05-19T17:50:10.478Z,18.90
2023-05-19T17:52:34.851Z,18.90
2023-05-19T17:54:58.876Z,18.90
2023-05-19T17:57:26.850Z,18.90
2023-05-19T17:59:51.112Z,18.90
2023-05-19T18:02:15.684Z,18.90
2023-05-19T18:04:39.890Z,18.80
2023-05-19T18:07:05.628Z,18.70
2023-05-19T18:09:31.421Z,18.60
2023-05-19T18:11:55.096Z,18.60
2023-05-19T18:14:19.981Z,18.60
2023-05-19T18:16:43.480Z,18.70
2023-05-19T18:19:07.053Z,18.60
2023-05-19T18:21:31.399Z,18.50
2023-05-19T18:23:54.785Z,18.50
2023-05-19T18:26:18.192Z,18.50
2023-05-19T18:28:41.480Z,18.50
2023-05-19T18:31:07.991Z,18.30
2023-05-19T18:33:31.706Z,18.40
2023-05-19T18:35:55.727Z,18.30
2023-05-19T18:38:19.027Z,18.30
2023-05-19T18:40:44.621Z,18.20
2023-05-19T18:43:08.008Z,18.30
2023-05-19T18:45:31.432Z,18.30
2023-05-19T18:47:56.330Z,18.20
2023-05-19T18:50:20.583Z,18.10
2023-05-19T18:52:43.985Z,18.10
2023-05-19T18:55:08.843Z,18.10
2023-05-19T18:57:32.304Z,18.00
2023-05-19T18:59:55.740Z,18.00
2023-05-19T19:02:19.061Z,17.90
2023-05-19T19:04:45.301Z,17.80
2023-05-19T19:07:08.745Z,17.90
2023-05-19T19:09:32.086Z,17.90
2023-05-19T19:11:55.522Z,17.80
2023-05-19T19:14:19.383Z,17.70
2023-05-19T19:16:42.744Z,17.60
2023-05-19T19:19:06.242Z,17.60
2023-05-19T19:21:31.582Z,17.50
2023-05-19T19:23:55.547Z,17.50
2023-05-19T19:26:18.846Z,17.50
2023-05-19T19:28:42.141Z,17.30
2023-05-19T19:31:05.490Z,17.20
2023-05-19T19:33:28.834Z,17.20
2023-05-19T19:35:52.129Z,17.20
2023-05-19T19:38:16.843Z,17.30
2023-05-19T19:40:40.207Z,17.30
2023-05-19T19:43:03.569Z,17.20
2023-05-19T19:45:27.039Z,17.20
2023-05-19T19:47:51.725Z,17.20
2023-05-19T19:50:15.554Z,17.10
2023-05-19T19:52:38.940Z,17.10
2023-05-19T19:55:03.929Z,17.00
2023-05-19T19:57:29.096Z,17.00
2023-05-19T19:59:55.162Z,17.00
2023-05-19T20:02:18.632Z,17.10
2023-05-19T20:04:41.977Z,17.00
2023-05-19T20:07:05.843Z,17.00
2023-05-19T20:09:29.174Z,16.90
2023-05-19T20:11:53.830Z,16.90
2023-05-19T20:14:18.781Z,16.90
2023-05-19T20:16:42.290Z,16.80
2023-05-19T20:19:08.492Z,16.90
2023-05-19T20:21:32.507Z,16.80
2023-05-19T20:23:55.937Z,16.70
2023-05-19T20:26:19.281Z,16.70
2023-05-19T20:28:44.090Z,16.60
2023-05-19T20:31:07.546Z,16.60
2023-05-19T20:33:31.717Z,16.60
2023-05-19T20:35:54.968Z,16.50
2023-05-19T20:38:18.563Z,16.50
2023-05-19T20:40:41.809Z,16.40
2023-05-19T20:43:05.104Z,16.30
2023-05-19T20:45:29.750Z,16.30
2023-05-19T20:47:54.433Z,16.30
2023-05-19T20:50:17.894Z,16.10
2023-05-19T20:52:41.246Z,16.00
2023-05-19T20:55:05.057Z,16.00
2023-05-19T20:57:29.289Z,16.00
2023-05-19T20:59:52.635Z,15.80
2023-05-19T21:02:17.299Z,15.80
2023-05-19T21:04:40.904Z,15.70
2023-05-19T21:07:04.328Z,15.60
2023-05-19T21:09:27.669Z,15.50
2023-05-19T21:11:53.183Z,15.50
2023-05-19T21:14:16.445Z,15.40
2023-05-19T21:16:42.413Z,15.30
2023-05-19T21:19:07.472Z,15.30
2023-05-19T21:21:31.635Z,15.10
2023-05-19T21:23:54.957Z,15.10
2023-05-19T21:26:18.292Z,15.10
2023-05-19T21:28:41.997Z,15.20
2023-05-19T21:31:06.064Z,15.20
2023-05-19T21:33:29.494Z,15.10
2023-05-19T21:35:54.183Z,15.20
2023-05-19T21:38:23.979Z,15.20
2023-05-19T21:40:48.762Z,15.00
2023-05-19T21:43:12.661Z,15.00
2023-05-19T21:45:35.996Z,15.00
2023-05-19T21:47:59.300Z,14.90
2023-05-19T21:50:22.697Z,14.90
2023-05-19T21:52:47.340Z,14.90
2023-05-19T21:55:11.588Z,14.90
2023-05-19T21:57:35.049Z,14.90
2023-05-19T21:59:58.351Z,15.00
2023-05-19T22:02:21.629Z,14.90
2023-05-19T22:04:45.103Z,14.90
2023-05-19T22:07:08.298Z,14.90
2023-05-19T22:09:32.939Z,15.00
2023-05-19T22:11:56.246Z,14.90
2023-05-19T22:14:19.964Z,15.00
2023-05-19T22:16:43.390Z,14.90
2023-05-19T22:19:07.082Z,14.90
2023-05-19T22:21:31.176Z,14.80
2023-05-19T22:23:54.525Z,14.80
2023-05-19T22:26:19.190Z,14.70
2023-05-19T22:28:42.559Z,14.70
2023-05-19T22:31:06.414Z,14.60
2023-05-19T22:33:29.696Z,14.60
2023-05-19T22:35:53.064Z,14.60
2023-05-19T22:38:16.400Z,14.50
2023-05-19T22:40:39.895Z,14.50
2023-05-19T22:43:06.123Z,14.50
2023-05-19T22:45:29.471Z,14.50
2023-05-19T22:47:52.752Z,14.40
2023-05-19T22:50:16.677Z,14.30
2023-05-19T22:52:40.321Z,14.30
2023-05-19T22:55:03.881Z,14.20
2023-05-19T22:57:27.199Z,14.20
2023-05-19T22:59:51.805Z,14.30
2023-05-19T23:02:15.177Z,14.20
2023-05-19T23:04:38.641Z,14.20
2023-05-19T23:07:02.322Z,14.20
2023-05-19T23:09:27.194Z,14.20
2023-05-19T23:11:50.573Z,14.20
2023-05-19T23:14:13.939Z,14.10
2023-05-19T23:16:38.709Z,14.00
2023-05-19T23:19:02.111Z,14.00
2023-05-19T23:21:25.528Z,14.00
2023-05-19T23:23:48.807Z,14.00
2023-05-19T23:26:13.384Z,13.90
2023-05-19T23:28:36.729Z,13.90
2023-05-19T23:31:00.084Z,14.00
2023-05-19T23:33:24.835Z,13.90
2023-05-19T23:35:48.238Z,13.70
2023-05-19T23:38:11.899Z,13.60
2023-05-19T23:40:35.243Z,13.60
2023-05-19T23:42:58.524Z,13.50
2023-05-19T23:45:21.799Z,13.60
2023-05-19T23:47:45.232Z,13.50
2023-05-19T23:50:11.422Z,13.40
2023-05-19T23:52:34.677Z,13.20
2023-05-19T23:54:58.496Z,13.20
2023-05-19T23:57:21.862Z,13.10
2023-05-19T23:59:45.444Z,13.10
